createdAt,value
2023-01-17T00:02:16.608Z,11.70
2023-01-17T00:05:03.906Z,7.20
2023-01-17T00:07:51.214Z,7.30
2023-01-17T00:10:22.070Z,9.30
2023-01-17T00:12:55.627Z,6.90
2023-01-17T00:15:24.289Z,6.50
2023-01-17T00:17:53.850Z,5.50
2023-01-17T00:20:46.074Z,5.70
2023-01-17T00:23:38.820Z,6.60
2023-01-17T00:26:12.025Z,5.50
2023-01-17T00:28:42.881Z,5.00
2023-01-17T00:31:12.375Z,5.00
2023-01-17T00:33:40.377Z,6.30
2023-01-17T00:36:09.161Z,6.10
2023-01-17T00:38:39.190Z,5.90
2023-01-17T00:41:10.072Z,6.30
2023-01-17T00:43:56.700Z,6.40
2023-01-17T00:46:43.437Z,6.10
2023-01-17T00:49:30.208Z,5.30
2023-01-17T00:52:16.668Z,5.80
2023-01-17T00:55:03.343Z,5.10
2023-01-17T00:57:49.649Z,6.30
2023-01-17T01:00:37.711Z,6.30
2023-01-17T01:03:29.434Z,7.10
2023-01-17T01:06:16.245Z,6.50
2023-01-17T01:09:03.165Z,6.10
2023-01-17T01:11:49.437Z,6.20
2023-01-17T01:14:35.993Z,7.70
2023-01-17T01:17:23.187Z,8.10
2023-01-17T01:20:09.701Z,7.70
2023-01-17T01:22:56.113Z,5.90
2023-01-17T01:25:42.587Z,5.70
2023-01-17T01:28:31.192Z,5.90
2023-01-17T01:31:18.971Z,7.20
2023-01-17T01:33:47.099Z,6.90
2023-01-17T01:36:15.590Z,7.80
2023-01-17T01:38:43.495Z,7.00
2023-01-17T01:41:11.856Z,8.50
2023-01-17T01:43:45.017Z,6.50
2023-01-17T01:46:25.760Z,7.40
2023-01-17T01:49:02.288Z,6.90
2023-01-17T01:51:35.367Z,7.20
2023-01-17T01:54:18.236Z,6.70
2023-01-17T01:56:48.317Z,6.10
2023-01-17T01:59:20.365Z,7.30
2023-01-17T02:01:51.800Z,6.70
2023-01-17T02:04:22.229Z,10.70
2023-01-17T02:06:56.331Z,6.20
2023-01-17T02:09:24.464Z,5.70
2023-01-17T02:11:52.803Z,6.90
2023-01-17T02:14:22.424Z,6.80
2023-01-17T02:16:58.147Z,8.70
2023-01-17T02:19:44.856Z,5.00
2023-01-17T02:22:34.955Z,5.40
2023-01-17T02:25:32.066Z,5.90
2023-01-17T02:28:19.899Z,4.10
2023-01-17T02:30:56.372Z,4.70
2023-01-17T02:33:33.733Z,4.50
2023-01-17T02:36:22.481Z,4.40
2023-01-17T02:39:02.834Z,4.80
2023-01-17T02:41:35.730Z,5.00
2023-01-17T02:44:04.273Z,5.60
2023-01-17T02:46:32.167Z,4.80
2023-01-17T02:49:00.669Z,4.70
2023-01-17T02:51:50.034Z,4.60
2023-01-17T02:54:36.185Z,4.60
2023-01-17T02:57:23.553Z,4.80
2023-01-17T03:00:00.606Z,4.70
2023-01-17T03:02:51.841Z,5.00
2023-01-17T03:05:44.565Z,4.50
2023-01-17T03:08:13.396Z,4.30
2023-01-17T03:10:42.562Z,5.70
2023-01-17T03:13:10.463Z,4.90
2023-01-17T03:15:40.113Z,5.90
2023-01-17T03:18:15.028Z,4.70
2023-01-17T03:20:43.180Z,5.00
2023-01-17T03:23:11.099Z,4.10
2023-01-17T03:25:38.985Z,5.00
2023-01-17T03:28:06.993Z,4.40
2023-01-17T03:30:34.963Z,4.50
2023-01-17T03:33:02.941Z,5.00
2023-01-17T03:35:30.960Z,4.40
2023-01-17T03:37:58.927Z,4.50
2023-01-17T03:40:27.089Z,5.00
2023-01-17T03:42:55.079Z,4.40
2023-01-17T03:45:23.024Z,4.20
2023-01-17T03:47:50.974Z,4.80
2023-01-17T03:50:18.869Z,4.10
2023-01-17T03:52:46.776Z,4.20
2023-01-17T03:55:14.801Z,6.40
2023-01-17T03:57:42.640Z,4.80
2023-01-17T04:00:11.271Z,4.60
2023-01-17T04:02:39.214Z,4.80
2023-01-17T04:05:08.227Z,4.90
2023-01-17T04:07:36.098Z,5.30
2023-01-17T04:10:04.589Z,4.10
2023-01-17T04:12:32.528Z,4.50
2023-01-17T04:15:00.442Z,8.50
2023-01-17T04:17:28.434Z,5.00
2023-01-17T04:19:56.359Z,5.10
2023-01-17T04:22:24.355Z,4.50
2023-01-17T04:24:52.304Z,4.30
2023-01-17T04:27:20.222Z,4.80
2023-01-17T04:29:48.095Z,4.40
2023-01-17T04:32:16.025Z,4.90
2023-01-17T04:34:44.019Z,4.40
2023-01-17T04:37:11.967Z,4.10
2023-01-17T04:39:40.050Z,5.40
2023-01-17T04:42:07.905Z,5.00
2023-01-17T04:44:35.807Z,5.50
2023-01-17T04:47:03.843Z,4.70
2023-01-17T04:49:31.761Z,4.20
2023-01-17T04:51:59.811Z,7.20
2023-01-17T04:54:27.729Z,4.10
2023-01-17T04:56:55.624Z,3.90
2023-01-17T04:59:23.555Z,3.90
2023-01-17T05:01:51.545Z,5.00
2023-01-17T05:04:19.573Z,4.80
2023-01-17T05:06:47.478Z,3.50
2023-01-17T05:09:15.333Z,3.80
2023-01-17T05:11:43.219Z,9.00
2023-01-17T05:14:11.304Z,3.40
2023-01-17T05:16:39.193Z,4.00
2023-01-17T05:19:07.064Z,3.30
2023-01-17T05:21:35.153Z,4.80
2023-01-17T05:24:03.580Z,4.30
2023-01-17T05:26:31.521Z,2.70
2023-01-17T05:28:59.382Z,3.20
2023-01-17T05:31:27.323Z,4.20
2023-01-17T05:33:55.263Z,4.10
2023-01-17T05:36:23.199Z,3.00
2023-01-17T05:38:51.074Z,2.60
2023-01-17T05:41:19.034Z,2.90
2023-01-17T05:43:46.939Z,2.80
2023-01-17T05:46:16.210Z,4.90
2023-01-17T05:48:44.174Z,4.20
2023-01-17T05:51:12.147Z,3.20
2023-01-17T05:53:40.027Z,3.20
2023-01-17T05:56:07.994Z,5.20
2023-01-17T05:58:35.907Z,5.20
2023-01-17T06:01:03.908Z,2.70
2023-01-17T06:03:32.006Z,3.90
2023-01-17T06:05:59.888Z,3.90
2023-01-17T06:08:27.880Z,4.00
2023-01-17T06:10:58.820Z,4.10
2023-01-17T06:13:26.741Z,2.90
2023-01-17T06:15:57.656Z,4.00
2023-01-17T06:18:25.806Z,4.20
2023-01-17T06:20:55.307Z,4.00
2023-01-17T06:23:24.523Z,7.50
2023-01-17T06:25:52.576Z,4.50
2023-01-17T06:28:22.734Z,5.60
2023-01-17T06:30:50.668Z,6.10
2023-01-17T06:33:18.962Z,6.50
2023-01-17T06:35:49.092Z,6.20
2023-01-17T06:38:17.725Z,5.90
2023-01-17T06:40:45.840Z,10.10
2023-01-17T06:43:13.865Z,9.90
2023-01-17T06:45:41.772Z,9.60
2023-01-17T06:48:09.790Z,18.70
2023-01-17T06:50:38.171Z,24.60
2023-01-17T06:53:07.234Z,14.50
2023-01-17T06:55:37.248Z,17.70
2023-01-17T06:58:05.203Z,19.70
2023-01-17T07:00:35.230Z,8.30
2023-01-17T07:03:03.407Z,16.20
2023-01-17T07:05:31.369Z,14.30
2023-01-17T07:07:59.355Z,10.50
2023-01-17T07:10:27.457Z,7.70
2023-01-17T07:13:00.737Z,6.60
2023-01-17T07:15:28.696Z,8.30
2023-01-17T07:17:56.546Z,10.10
2023-01-17T07:20:24.434Z,7.10
2023-01-17T07:22:52.381Z,10.30
2023-01-17T07:25:20.327Z,9.30
2023-01-17T07:27:48.600Z,7.80
2023-01-17T07:30:16.878Z,9.10
2023-01-17T07:32:44.759Z,16.60
2023-01-17T07:35:12.664Z,5.70
2023-01-17T07:37:40.663Z,11.80
2023-01-17T07:40:09.498Z,22.30
2023-01-17T07:42:37.566Z,9.30
2023-01-17T07:45:06.256Z,13.10
2023-01-17T07:47:34.171Z,7.50
2023-01-17T07:50:02.939Z,6.30
2023-01-17T07:52:31.382Z,5.40
2023-01-17T07:54:59.403Z,7.80
2023-01-17T07:57:27.380Z,16.30
2023-01-17T07:59:55.298Z,10.80
2023-01-17T08:02:23.736Z,4.50
2023-01-17T08:04:51.747Z,4.60
2023-01-17T08:07:19.641Z,5.10
2023-01-17T08:09:49.885Z,69.40
2023-01-17T08:12:18.109Z,5.50
2023-01-17T08:14:46.192Z,8.30
2023-01-17T08:17:16.403Z,4.60
2023-01-17T08:19:45.027Z,7.00
2023-01-17T08:22:13.014Z,4.80
2023-01-17T08:24:42.273Z,9.50
2023-01-17T08:27:10.426Z,4.40
2023-01-17T08:29:42.167Z,47.70
2023-01-17T08:32:10.079Z,11.10
2023-01-17T08:34:38.087Z,5.50
2023-01-17T08:37:06.100Z,5.60
2023-01-17T08:39:34.018Z,5.60
2023-01-17T08:42:01.987Z,7.10
2023-01-17T08:44:29.969Z,4.80
2023-01-17T08:46:57.967Z,5.70
2023-01-17T08:49:25.888Z,10.20
2023-01-17T08:51:53.929Z,5.70
2023-01-17T08:54:22.954Z,10.40
2023-01-17T08:56:52.854Z,9.90
2023-01-17T08:59:22.275Z,18.10
2023-01-17T09:01:52.529Z,10.50
2023-01-17T09:04:20.839Z,14.80
2023-01-17T09:06:48.847Z,14.70
2023-01-17T09:09:17.526Z,7.30
2023-01-17T09:11:45.536Z,7.60
2023-01-17T09:14:13.993Z,5.80
2023-01-17T09:16:41.867Z,11.70
2023-01-17T09:19:10.264Z,28.00
2023-01-17T09:21:38.159Z,12.60
2023-01-17T09:24:06.382Z,10.40
2023-01-17T09:26:35.621Z,9.20
2023-01-17T09:29:04.075Z,13.60
2023-01-17T09:31:32.109Z,4.90
2023-01-17T09:34:00.156Z,6.40
2023-01-17T09:36:28.984Z,7.80
2023-01-17T09:38:58.697Z,6.90
2023-01-17T09:41:30.210Z,10.70
2023-01-17T09:44:14.807Z,6.60
2023-01-17T09:46:46.263Z,4.10
2023-01-17T09:49:39.680Z,5.10
2023-01-17T09:52:11.922Z,4.00
2023-01-17T09:54:41.860Z,9.70
2023-01-17T09:57:16.059Z,12.00
2023-01-17T10:00:31.149Z,8.10
2023-01-17T10:03:16.437Z,3.60
2023-01-17T10:05:58.428Z,6.30
2023-01-17T10:08:34.119Z,10.20
2023-01-17T10:11:21.351Z,5.30
2023-01-17T10:14:08.313Z,22.40
2023-01-17T10:16:53.261Z,4.90
2023-01-17T10:19:28.486Z,10.40
2023-01-17T10:22:13.719Z,11.20
2023-01-17T10:25:17.806Z,8.50
2023-01-17T10:27:59.479Z,7.80
2023-01-17T10:30:32.738Z,11.20
2023-01-17T10:33:04.223Z,8.80
2023-01-17T10:35:37.438Z,11.00
2023-01-17T10:38:11.239Z,8.30
2023-01-17T10:43:30.189Z,7.30
2023-01-17T10:45:57.307Z,6.30
2023-01-17T10:48:43.657Z,5.00
2023-01-17T10:51:43.317Z,5.60
2023-01-17T10:54:36.305Z,13.30
2023-01-17T10:57:03.246Z,10.10
2023-01-17T10:59:36.490Z,10.00
2023-01-17T11:02:14.657Z,10.30
2023-01-17T11:04:41.851Z,6.50
2023-01-17T11:07:15.934Z,10.80
2023-01-17T11:09:47.225Z,8.00
2023-01-17T11:12:20.118Z,11.50
2023-01-17T11:15:01.765Z,21.50
2023-01-17T11:17:29.588Z,7.70
2023-01-17T11:20:13.365Z,7.40
2023-01-17T11:22:45.538Z,9.00
2023-01-17T11:25:23.725Z,5.40
2023-01-17T11:28:04.437Z,10.90
2023-01-17T11:30:31.106Z,12.50
2023-01-17T11:33:05.487Z,10.20
2023-01-17T11:35:37.649Z,10.40
2023-01-17T11:38:20.945Z,7.90
2023-01-17T11:40:49.340Z,8.70
2023-01-17T11:43:20.848Z,9.70
2023-01-17T11:46:18.334Z,6.00
2023-01-17T11:48:56.446Z,7.40
2023-01-17T11:51:38.297Z,11.40
2023-01-17T11:54:29.511Z,12.80
2023-01-17T11:57:01.552Z,13.30
2023-01-17T11:59:35.267Z,6.20
2023-01-17T12:04:50.771Z,4.50
2023-01-17T12:07:32.056Z,9.10
2023-01-17T12:10:08.624Z,6.30
2023-01-17T12:13:03.251Z,7.10
2023-01-17T12:15:44.936Z,13.50
2023-01-17T12:18:23.976Z,8.50
2023-01-17T12:20:56.323Z,17.20
2023-01-17T12:23:35.363Z,13.70
2023-01-17T12:26:31.195Z,13.40
2023-01-17T12:29:30.089Z,9.20
2023-01-17T12:32:21.121Z,5.40
2023-01-17T12:35:05.360Z,8.50
2023-01-17T12:37:38.307Z,6.00
2023-01-17T12:40:36.262Z,8.00
2023-01-17T12:43:14.702Z,7.20
2023-01-17T12:45:46.737Z,9.70
2023-01-17T12:48:17.797Z,8.20
2023-01-17T12:50:53.381Z,9.20
2023-01-17T12:53:35.454Z,10.70
2023-01-17T12:56:24.017Z,9.20
2023-01-17T12:58:55.917Z,8.30
2023-01-17T13:01:31.096Z,5.90
2023-01-17T13:04:10.406Z,8.30
2023-01-17T13:07:00.181Z,11.40
2023-01-17T13:09:34.367Z,4.30
2023-01-17T13:12:05.465Z,5.30
2023-01-17T13:14:32.370Z,6.90
2023-01-17T13:17:08.387Z,13.90
2023-01-17T13:19:47.696Z,4.90
2023-01-17T13:22:16.869Z,9.20
2023-01-17T13:24:43.446Z,10.40
2023-01-17T13:27:21.903Z,36.80
2023-01-17T13:29:59.464Z,19.00
2023-01-17T13:32:49.507Z,9.00
2023-01-17T13:35:44.291Z,9.40
2023-01-17T13:38:29.269Z,5.80
2023-01-17T13:41:36.189Z,9.20
2023-01-17T13:44:21.010Z,8.10
2023-01-17T13:46:54.692Z,5.80
2023-01-17T13:52:03.678Z,5.10
2023-01-17T13:54:32.184Z,6.40
2023-01-17T13:57:32.246Z,5.40
2023-01-17T14:00:35.062Z,5.00
2023-01-17T14:03:01.871Z,6.70
2023-01-17T14:05:37.565Z,8.00
2023-01-17T14:08:12.308Z,13.70
2023-01-17T14:10:46.677Z,12.40
2023-01-17T14:13:35.008Z,13.00
2023-01-17T14:16:07.009Z,12.00
2023-01-17T14:18:41.184Z,9.90
2023-01-17T14:21:28.255Z,12.50
2023-01-17T14:23:59.887Z,8.80
2023-01-17T14:26:33.612Z,6.00
2023-01-17T14:31:53.526Z,7.80
2023-01-17T14:36:48.271Z,17.10
2023-01-17T14:39:21.871Z,16.20
2023-01-17T14:44:15.292Z,16.80
2023-01-17T14:46:47.826Z,14.00
2023-01-17T14:49:24.724Z,14.50
2023-01-17T14:51:59.395Z,13.60
2023-01-17T14:54:25.951Z,18.10
2023-01-17T14:57:13.114Z,19.00
2023-01-17T14:59:39.628Z,17.10
2023-01-17T15:02:15.690Z,14.50
2023-01-17T15:04:42.485Z,10.30
2023-01-17T15:07:15.534Z,11.60
2023-01-17T15:09:43.906Z,20.90
2023-01-17T15:12:13.789Z,22.30
2023-01-17T15:14:43.910Z,25.60
2023-01-17T15:17:18.317Z,25.80
2023-01-17T15:19:48.822Z,21.30
2023-01-17T15:22:18.102Z,23.60
2023-01-17T15:24:46.255Z,24.40
2023-01-17T15:27:15.599Z,25.40
2023-01-17T15:29:44.638Z,33.10
2023-01-17T15:32:21.930Z,32.20
2023-01-17T15:34:50.273Z,40.50
2023-01-17T15:37:26.839Z,31.30
2023-01-17T15:40:02.881Z,34.40
2023-01-17T15:42:32.716Z,36.70
2023-01-17T15:45:04.020Z,39.90
2023-01-17T15:47:37.972Z,46.70
2023-01-17T15:50:39.006Z,45.30
2023-01-17T15:53:12.586Z,40.30
2023-01-17T15:55:39.625Z,40.70
2023-01-17T15:58:24.497Z,60.60
2023-01-17T16:00:51.121Z,68.30
2023-01-17T16:03:22.715Z,64.70
2023-01-17T16:05:51.623Z,48.10
2023-01-17T16:08:27.463Z,80.00
2023-01-17T16:10:57.856Z,240.60
2023-01-17T16:13:24.434Z,145.80
2023-01-17T16:15:51.038Z,83.10
2023-01-17T16:18:23.304Z,186.60
2023-01-17T16:20:59.332Z,130.90
2023-01-17T16:23:27.506Z,254.60
2023-01-17T16:25:54.391Z,250.10
2023-01-17T16:28:20.957Z,173.10
2023-01-17T16:30:48.203Z,196.10
2023-01-17T16:33:15.146Z,173.80
2023-01-17T16:35:42.383Z,167.20
2023-01-17T16:38:19.055Z,181.50
2023-01-17T16:40:46.856Z,183.10
2023-01-17T16:43:15.119Z,189.90
2023-01-17T16:45:44.813Z,184.20
2023-01-17T16:48:12.293Z,167.80
2023-01-17T16:50:47.495Z,243.80
2023-01-17T16:53:14.659Z,254.50
2023-01-17T16:55:42.248Z,227.20
2023-01-17T16:58:09.050Z,204.00
2023-01-17T17:00:35.908Z,191.40
2023-01-17T17:03:02.549Z,169.00
2023-01-17T17:05:30.029Z,167.80
2023-01-17T17:07:57.115Z,164.50
2023-01-17T17:10:24.586Z,177.10
2023-01-17T17:12:51.452Z,182.10
2023-01-17T17:15:18.230Z,179.60
2023-01-17T17:17:44.828Z,167.80
2023-01-17T17:20:14.002Z,178.00
2023-01-17T17:22:43.306Z,170.50
2023-01-17T17:25:11.301Z,180.50
2023-01-17T17:27:38.197Z,202.00
2023-01-17T17:30:05.642Z,195.10
2023-01-17T17:32:32.260Z,277.20
2023-01-17T17:34:59.356Z,284.80
2023-01-17T17:37:28.346Z,272.40
2023-01-17T17:39:56.166Z,245.50
2023-01-17T17:42:22.839Z,219.20
2023-01-17T17:44:49.468Z,208.00
2023-01-17T17:47:16.061Z,206.90
2023-01-17T17:49:42.826Z,263.30
2023-01-17T17:52:10.091Z,244.40
2023-01-17T17:54:36.617Z,233.30
2023-01-17T17:57:03.321Z,224.20
2023-01-17T17:59:30.553Z,223.10
2023-01-17T18:01:59.028Z,218.20
2023-01-17T18:04:25.652Z,210.90
2023-01-17T18:06:56.202Z,216.40
2023-01-17T18:09:23.105Z,426.80
2023-01-17T18:11:49.722Z,429.50
2023-01-17T18:14:20.105Z,402.50
2023-01-17T18:16:47.200Z,259.20
2023-01-17T18:19:18.581Z,281.90
2023-01-17T18:21:45.630Z,272.50
2023-01-17T18:24:14.353Z,286.60
2023-01-17T18:26:43.546Z,321.50
2023-01-17T18:29:14.110Z,343.10
2023-01-17T18:31:42.524Z,392.30
2023-01-17T18:34:20.452Z,417.40
2023-01-17T18:36:47.375Z,435.40
2023-01-17T18:39:23.854Z,395.50
2023-01-17T18:41:50.787Z,344.90
2023-01-17T18:44:21.628Z,303.10
2023-01-17T18:46:50.121Z,226.90
2023-01-17T18:49:18.440Z,287.30
2023-01-17T18:51:49.800Z,262.60
2023-01-17T18:54:17.158Z,268.50
2023-01-17T18:56:43.965Z,296.70
2023-01-17T18:59:17.454Z,320.30
2023-01-17T19:01:44.165Z,219.30
2023-01-17T19:04:12.896Z,197.20
2023-01-17T19:06:41.860Z,178.50
2023-01-17T19:09:10.849Z,188.80
2023-01-17T19:11:37.503Z,202.60
2023-01-17T19:14:05.083Z,217.70
2023-01-17T19:16:35.301Z,196.40
2023-01-17T19:19:06.229Z,179.20
2023-01-17T19:21:33.283Z,164.20
2023-01-17T19:24:00.547Z,179.70
2023-01-17T19:26:27.801Z,186.50
2023-01-17T19:28:57.960Z,175.40
2023-01-17T19:31:26.982Z,130.10
2023-01-17T19:33:56.680Z,150.80
2023-01-17T19:36:42.031Z,166.40
2023-01-17T19:39:09.184Z,152.30
2023-01-17T19:41:40.398Z,139.00
2023-01-17T19:44:09.188Z,163.10
2023-01-17T19:46:36.439Z,153.50
2023-01-17T19:49:05.586Z,150.10
2023-01-17T19:51:32.475Z,150.80
2023-01-17T19:54:03.365Z,159.30
2023-01-17T19:56:29.940Z,168.20
2023-01-17T19:59:00.017Z,172.40
2023-01-17T20:01:29.545Z,170.90
2023-01-17T20:03:58.160Z,118.40
2023-01-17T20:06:30.961Z,120.50
2023-01-17T20:08:57.807Z,105.00
2023-01-17T20:11:25.895Z,99.10
2023-01-17T20:13:55.113Z,103.80
2023-01-17T20:16:23.318Z,93.90
2023-01-17T20:18:49.930Z,91.00
2023-01-17T20:21:19.323Z,125.70
2023-01-17T20:23:47.029Z,117.10
2023-01-17T20:26:16.218Z,111.30
2023-01-17T20:28:45.347Z,146.30
2023-01-17T20:31:14.724Z,133.90
2023-01-17T20:33:43.416Z,104.50
2023-01-17T20:36:14.768Z,118.00
2023-01-17T20:38:43.208Z,103.80
2023-01-17T20:41:10.343Z,101.10
2023-01-17T20:43:37.185Z,105.00
2023-01-17T20:46:05.163Z,95.20
2023-01-17T20:48:32.091Z,73.70
2023-01-17T20:51:05.049Z,104.40
2023-01-17T20:53:34.287Z,113.10
2023-01-17T20:56:01.084Z,131.80
2023-01-17T20:58:28.220Z,123.40
2023-01-17T21:00:55.391Z,141.50
2023-01-17T21:03:23.454Z,133.30
2023-01-17T21:05:50.993Z,113.50
2023-01-17T21:08:18.689Z,109.30
2023-01-17T21:10:47.725Z,146.40
2023-01-17T21:13:14.952Z,101.00
2023-01-17T21:15:43.313Z,90.70
2023-01-17T21:18:09.905Z,84.10
2023-01-17T21:20:36.462Z,87.00
2023-01-17T21:23:03.009Z,94.90
2023-01-17T21:25:29.628Z,98.60
2023-01-17T21:27:56.437Z,115.50
2023-01-17T21:30:23.139Z,100.80
2023-01-17T21:32:49.652Z,99.90
2023-01-17T21:35:16.178Z,70.00
2023-01-17T21:37:42.844Z,66.30
2023-01-17T21:40:10.121Z,88.90
2023-01-17T21:42:36.706Z,92.00
2023-01-17T21:45:03.478Z,105.60
2023-01-17T21:47:30.095Z,111.50
2023-01-17T21:49:56.570Z,119.10
2023-01-17T21:52:23.115Z,135.20
2023-01-17T21:55:08.380Z,119.80
2023-01-17T21:57:53.489Z,117.40
2023-01-17T22:00:20.117Z,118.70
2023-01-17T22:02:47.664Z,130.60
2023-01-17T22:05:16.017Z,133.00
2023-01-17T22:08:03.671Z,148.00
2023-01-17T22:10:30.483Z,129.20
2023-01-17T22:12:57.049Z,153.10
2023-01-17T22:15:23.788Z,163.20
2023-01-17T22:17:50.416Z,231.80
2023-01-17T22:20:17.428Z,195.80
2023-01-17T22:22:45.460Z,220.20
2023-01-17T22:25:13.028Z,228.80
2023-01-17T22:27:39.557Z,215.90
2023-01-17T22:30:12.126Z,202.60
2023-01-17T22:32:38.997Z,189.20
2023-01-17T22:35:06.852Z,193.10
2023-01-17T22:37:34.269Z,187.70
2023-01-17T22:40:04.083Z,183.90
2023-01-17T22:42:34.088Z,173.70
2023-01-17T22:45:00.715Z,170.40
2023-01-17T22:47:27.286Z,182.40
2023-01-17T22:49:53.833Z,168.90
2023-01-17T22:52:20.346Z,166.80
2023-01-17T22:54:46.902Z,171.30
2023-01-17T22:57:13.437Z,178.60
2023-01-17T22:59:39.967Z,173.80
2023-01-17T23:02:06.549Z,148.20
2023-01-17T23:04:33.094Z,139.80
2023-01-17T23:06:59.920Z,134.00
2023-01-17T23:09:26.444Z,148.50
2023-01-17T23:11:54.481Z,168.10
2023-01-17T23:14:21.005Z,171.40
2023-01-17T23:17:09.467Z,172.80
2023-01-17T23:19:38.280Z,184.60
2023-01-17T23:22:19.725Z,188.20
2023-01-17T23:24:55.556Z,185.30
2023-01-17T23:27:45.021Z,183.10
2023-01-17T23:30:11.630Z,189.50
2023-01-17T23:32:42.212Z,167.30
2023-01-17T23:35:08.887Z,172.70
2023-01-17T23:37:54.514Z,177.60
2023-01-17T23:40:21.448Z,137.60
2023-01-17T23:43:06.885Z,129.80
2023-01-17T23:45:35.183Z,89.70
2023-01-17T23:48:04.803Z,89.60
2023-01-17T23:50:32.332Z,72.10
2023-01-17T23:52:59.188Z,73.80
2023-01-17T23:55:25.902Z,78.50
2023-01-17T23:57:53.645Z,87.70
